2019-09-18 - 15:39:00

SR: 0508 - SS: 1739

RWY: 25


OBSERVATION: n/a

RVR Mean 1 min: (Runway Visual Range)
A: P2000 - B: P2000 - C: P2000
RVR Mean 10 min:
A: P2000 - B: P2000 - C: P2000
WARNING: n/a
W25: 270-320(290-04kt) 03kt-07kt
W07: 260-330(300-04kt) 02kt-06kt
OTHER: n/a

QFE: (tatsächlicher Luftdruck) 1020.6 hPa = 30.12 inHg
QNH:(Luftdruck auf Meereshöhe) 1026.4 hPa = 30.29 inHg
Temperatur: 13.6 °C
Dew point(Taupunkt): 8.1 °C

METAR:  00998 SADL31 EDDG 181520 METAR EDDG 181520Z 31010KT 260V340 9999 SCT048 14/07 Q1026 NOSIG= 
METAR (aus weather.noaa.gov):
2019/09/18 15:20 EDDG 181520Z 31010KT 260V340 9999 SCT048 14/07 Q1026 NOSIG 0

TAF (aus weather.noaa.gov):
2019/09/18 12:27 TAF EDDG 181100Z 1812/1912 31007KT 9999 BKN030 BECMG 1818/1820 VRB03KT PROB30 TEMPO 1903/1907 4000 BR BECMG 1910/1912 33005KT 0
NOWCAST
193
FODL44 EDDG 181500
FODL44 EDDG 1909181505
# Nowcasting EDDG 18.09.2019 15:05 UTC
Parameter/Stunde16171819202122
Windrichtung320320320320320310290
Windgeschwindigkeit7654332
Böen--------------
Lufttemperatur1413121110 9 8
Taupunkt 7 7 7 7 7 7 6
Belagstemperatur151311 9 8 6 5
Wetter-vorherrschend--------------
QNH1027102710271027102810281028
Wind in 5000 ft320/15330/15330/15330/15340/15340/15340/15
Wind in 3000 ft330/15330/15340/15350/15340/15340/15350/10
Wind in 2000 ft320/15330/15340/15350/15350/15350/15350/10
Wind in 1000 ft320/10330/15340/15350/15350/15340/15340/15